Time;durP1;ratioP1;P1;durP2;ratioP2;P2;SDS_P1;SDS_P2;PMS_P1;PMS_P2;Temp;Humidity;BMP_temperature;BMP_pressure;BME280_temperature;BME280_humidity;BME280_pressure;Samples;Min_cycle;Max_cycle;Signal;HPM_P1;HPM_P2
2022/07/30 00:00:36;;;;;;;3.67;3.47;;;;;;;24.14;nan;95039.78;5033796;28;20204;-64
2022/07/30 00:03:02;;;;;;;3.88;3.67;;;;;;;24.08;nan;95037.72;5033504;28;20326;-65
2022/07/30 00:05:31;;;;;;;7.03;3.95;;;;;;;24.00;nan;95043.56;5033599;28;20220;-64
2022/07/30 00:07:57;;;;;;;4.78;4.20;;;;;;;24.01;nan;95037.41;5033746;28;20254;-64
2022/07/30 00:10:24;;;;;;;3.72;3.42;;;;;;;24.08;nan;95032.53;5034026;28;20222;-65
2022/07/30 00:12:51;;;;;;;4.40;3.80;;;;;;;24.07;nan;95036.06;5033826;28;20192;-65
2022/07/30 00:15:18;;;;;;;4.57;4.28;;;;;;;24.04;nan;95025.94;5033686;28;20208;-66
2022/07/30 00:17:44;;;;;;;4.00;3.70;;;;;;;24.08;nan;95029.94;5033323;28;20199;-65
2022/07/30 00:20:11;;;;;;;15.23;4.85;;;;;;;24.08;nan;95032.53;5032545;28;20669;-64
2022/07/30 00:22:39;;;;;;;4.75;3.33;;;;;;;24.05;nan;95032.78;5033283;28;20688;-65
2022/07/30 00:25:07;;;;;;;3.80;3.50;;;;;;;24.11;nan;95029.66;5033036;28;20199;-65
2022/07/30 00:27:34;;;;;;;3.92;3.65;;;;;;;24.05;nan;95043.16;5033398;28;20261;-66
2022/07/30 00:30:01;;;;;;;6.13;3.60;;;;;;;24.00;nan;95024.59;5033132;28;20669;-65
2022/07/30 00:32:28;;;;;;;5.60;3.60;;;;;;;24.05;nan;95038.81;5033079;28;20200;-65
2022/07/30 00:34:54;;;;;;;3.67;3.47;;;;;;;24.04;nan;95025.94;5032575;28;20553;-65
2022/07/30 00:37:21;;;;;;;4.32;3.17;;;;;;;24.00;nan;95032.41;5031552;28;20200;-65
2022/07/30 00:39:49;;;;;;;4.55;4.25;;;;;;;23.96;nan;95031.84;5032432;28;20668;-64
2022/07/30 00:42:24;;;;;;;4.22;3.83;;;;;;;23.87;nan;95030.03;5032892;28;20281;-66
2022/07/30 00:44:51;;;;;;;5.35;4.95;;;;;;;23.89;nan;95027.28;5032712;28;20672;-66
2022/07/30 00:47:19;;;;;;;5.20;4.40;;;;;;;23.86;nan;95030.97;5033405;28;20200;-64
2022/07/30 00:49:46;;;;;;;4.82;4.53;;;;;;;23.77;nan;95030.94;5033097;28;20277;-66
2022/07/30 00:52:13;;;;;;;6.20;4.60;;;;;;;23.78;nan;95030.81;5032607;28;20235;-65
2022/07/30 00:54:40;;;;;;;4.18;3.88;;;;;;;23.74;nan;95025.09;5032510;28;20203;-65
2022/07/30 00:57:08;;;;;;;5.82;4.47;;;;;;;23.68;nan;95028.19;5032794;28;20199;-66
2022/07/30 00:59:35;;;;;;;4.28;3.85;;;;;;;23.69;nan;95026.44;5032794;28;20199;-66
2022/07/30 01:02:02;;;;;;;4.38;4.07;;;;;;;23.69;nan;95021.25;5031659;28;20257;-64
2022/07/30 01:04:29;;;;;;;6.45;4.15;;;;;;;23.65;nan;95025.88;5032347;28;20290;-65
2022/07/30 01:06:56;;;;;;;4.75;4.43;;;;;;;23.56;nan;95015.44;5032502;28;20202;-64
2022/07/30 01:09:23;;;;;;;4.22;3.90;;;;;;;23.57;nan;95011.91;5032343;28;20191;-66
2022/07/30 01:11:50;;;;;;;4.85;3.80;;;;;;;23.51;nan;95013.19;5032557;28;20206;-66
2022/07/30 01:14:18;;;;;;;3.90;3.70;;;;;;;23.62;nan;95015.75;5032298;28;20199;-66
2022/07/30 01:16:45;;;;;;;7.05;4.13;;;;;;;23.58;nan;95024.75;5032414;28;20289;-65
2022/07/30 01:22:10;;;;;;;3.80;3.50;;;;;;;23.67;nan;95012.75;5031762;28;20361;-66
2022/07/30 01:24:42;;;;;;;3.90;3.60;;;;;;;23.78;nan;95009.22;5032173;28;20199;-65
2022/07/30 01:27:13;;;;;;;3.50;3.20;;;;;;;23.67;nan;95012.75;5032293;28;20206;-66
2022/07/30 01:29:42;;;;;;;4.57;3.22;;;;;;;23.66;nan;95022.31;5032506;28;20204;-66
2022/07/30 01:32:10;;;;;;;3.70;3.50;;;;;;;23.59;nan;95015.19;5032187;28;20200;-66
2022/07/30 01:34:39;;;;;;;3.95;3.75;;;;;;;23.55;nan;95019.00;5031692;28;20743;-65
2022/07/30 01:37:09;;;;;;;4.70;4.20;;;;;;;23.71;nan;95020.16;5032204;28;20281;-66
2022/07/30 01:39:37;;;;;;;3.47;3.28;;;;;;;23.64;nan;95023.41;5032005;28;20206;-66
2022/07/30 01:42:07;;;;;;;3.88;3.42;;;;;;;23.61;nan;95019.28;5031659;28;20196;-66
2022/07/30 01:44:37;;;;;;;3.63;3.40;;;;;;;23.62;nan;95014.91;5031954;28;20196;-65
2022/07/30 01:47:06;;;;;;;6.93;4.05;;;;;;;23.57;nan;95019.69;5031323;28;20199;-65
2022/07/30 01:49:36;;;;;;;3.78;3.58;;;;;;;23.73;nan;95023.44;5031971;28;20196;-67
2022/07/30 01:52:04;;;;;;;4.15;3.95;;;;;;;23.59;nan;95031.56;5031500;28;20680;-66
2022/07/30 01:54:33;;;;;;;3.92;3.60;;;;;;;23.49;nan;95024.69;5031840;28;20269;-65
2022/07/30 01:57:01;;;;;;;12.70;4.18;;;;;;;23.49;nan;95033.28;5031916;28;20269;-66
2022/07/30 01:59:30;;;;;;;5.18;3.95;;;;;;;23.38;nan;95023.81;5031582;28;20211;-65
2022/07/30 02:01:59;;;;;;;4.68;4.28;;;;;;;23.46;nan;95023.16;5031238;28;20211;-67
2022/07/30 02:04:26;;;;;;;4.25;3.95;;;;;;;23.18;nan;95031.63;5031245;28;20224;-66
2022/07/30 02:07:02;;;;;;;5.82;4.65;;;;;;;23.07;nan;95024.75;5031326;28;20290;-64
2022/07/30 02:09:34;;;;;;;7.45;4.18;;;;;;;23.01;nan;95023.47;5031196;28;20203;-65
2022/07/30 02:14:52;;;;;;;4.70;4.25;;;;;;;23.57;nan;95023.09;5030938;28;20274;-64
2022/07/30 02:17:24;;;;;;;4.72;4.40;;;;;;;23.71;nan;95027.94;5030763;28;20631;-64
2022/07/30 02:19:56;;;;;;;5.05;4.75;;;;;;;24.03;nan;95019.13;5031456;28;20196;-65
2022/07/30 02:22:24;;;;;;;4.72;4.32;;;;;;;23.98;nan;94996.19;5031026;28;20243;-65
2022/07/30 02:24:53;;;;;;;4.18;3.97;;;;;;;24.18;nan;95016.97;5031346;28;20204;-64
2022/07/30 02:27:24;;;;;;;4.72;4.35;;;;;;;24.08;nan;95011.75;5030872;28;20210;-63
2022/07/30 02:29:52;;;;;;;4.90;4.45;;;;;;;24.11;nan;95006.28;5031311;28;20640;-65
2022/07/30 02:32:23;;;;;;;4.32;3.92;;;;;;;24.21;nan;95021.91;5031173;28;20299;-66
2022/07/30 02:34:58;;;;;;;4.47;4.25;;;;;;;24.38;nan;95009.09;5030751;28;20231;-64
2022/07/30 02:37:27;;;;;;;6.82;5.30;;;;;;;24.47;nan;95012.66;5030654;28;20684;-65
2022/07/30 02:39:55;;;;;;;4.93;4.47;;;;;;;24.53;nan;95006.06;5030679;28;20204;-64
2022/07/30 02:42:24;;;;;;;5.10;4.60;;;;;;;24.62;nan;94997.47;5030582;28;20731;-64
2022/07/30 02:44:53;;;;;;;5.45;5.05;;;;;;;24.74;nan;94999.78;5030226;28;20752;-64
2022/07/30 02:47:24;;;;;;;4.78;4.38;;;;;;;24.91;nan;95005.22;5030608;28;20195;-63
2022/07/30 02:49:52;;;;;;;4.88;4.43;;;;;;;24.95;nan;94998.81;5030266;28;20199;-65
2022/07/30 02:52:20;;;;;;;5.93;4.55;;;;;;;24.82;nan;95009.47;5030595;28;20327;-64
2022/07/30 02:54:48;;;;;;;5.10;4.68;;;;;;;24.62;nan;95011.28;5030715;28;20218;-64
2022/07/30 02:57:17;;;;;;;4.25;4.05;;;;;;;24.62;nan;95007.84;5030739;28;20227;-64
2022/07/30 02:59:45;;;;;;;5.18;4.88;;;;;;;24.64;nan;94992.94;5031774;28;20223;-64
2022/07/30 03:02:13;;;;;;;5.07;4.78;;;;;;;24.59;nan;94990.75;5034483;28;20677;-64
2022/07/30 03:04:42;;;;;;;6.05;5.55;;;;;;;24.69;nan;94999.38;5034968;28;20211;-64
2022/07/30 03:07:10;;;;;;;5.25;4.82;;;;;;;24.57;nan;94981.44;5034784;28;20233;-64
2022/07/30 03:09:41;;;;;;;6.32;4.65;;;;;;;24.61;nan;94994.03;5034374;28;20207;-64
2022/07/30 03:12:10;;;;;;;5.22;4.82;;;;;;;24.69;nan;94991.56;5034678;28;20282;-64
2022/07/30 03:14:37;;;;;;;5.50;5.18;;;;;;;24.73;nan;94989.53;5034597;28;20227;-64
2022/07/30 03:17:07;;;;;;;5.50;5.20;;;;;;;24.76;nan;94986.63;5034891;28;20234;-64
2022/07/30 03:19:38;;;;;;;5.65;5.00;;;;;;;24.30;nan;95001.16;5034275;28;20661;-64
2022/07/30 03:22:08;;;;;;;5.22;4.82;;;;;;;24.14;nan;94990.44;5034197;28;20579;-63
2022/07/30 03:24:37;;;;;;;5.40;4.90;;;;;;;23.78;nan;95001.44;5034267;28;20219;-64
2022/07/30 03:27:06;;;;;;;6.18;5.82;;;;;;;23.59;nan;94997.84;5034541;28;20200;-65
2022/07/30 03:29:36;;;;;;;5.95;5.50;;;;;;;23.03;nan;94997.44;5033812;28;20291;-64
2022/07/30 03:32:05;;;;;;;5.32;5.03;;;;;;;22.85;nan;94994.59;5033954;28;20207;-64
2022/07/30 03:34:33;;;;;;;6.00;4.90;;;;;;;23.33;nan;95001.81;5033940;28;20203;-64
2022/07/30 03:37:00;;;;;;;5.05;4.65;;;;;;;23.60;nan;95002.09;5034506;28;20199;-63
2022/07/30 03:39:30;;;;;;;5.60;5.10;;;;;;;23.93;nan;95002.72;5033957;28;20720;-63
2022/07/30 03:41:57;;;;;;;5.78;5.38;;;;;;;24.36;nan;95011.00;5033833;28;20200;-64
2022/07/30 03:44:24;;;;;;;5.78;5.38;;;;;;;24.58;nan;95009.06;5034101;28;20278;-65
2022/07/30 03:46:53;;;;;;;5.30;4.90;;;;;;;24.60;nan;95023.56;5033743;28;20210;-63
2022/07/30 03:49:21;;;;;;;5.68;5.28;;;;;;;24.74;nan;95010.19;5033662;28;20809;-65
2022/07/30 03:51:48;;;;;;;5.95;5.55;;;;;;;24.90;nan;95019.19;5033242;28;20721;-64
2022/07/30 03:54:16;;;;;;;8.70;5.38;;;;;;;24.81;nan;95018.22;5033748;28;20767;-65
2022/07/30 03:56:44;;;;;;;6.40;5.63;;;;;;;24.97;nan;95020.31;5033687;28;20261;-65
2022/07/30 03:59:13;;;;;;;8.32;5.50;;;;;;;25.12;nan;95024.09;5033735;28;20673;-64
2022/07/30 04:01:40;;;;;;;9.88;5.38;;;;;;;25.35;nan;95019.38;5033123;28;20261;-64
2022/07/30 04:04:08;;;;;;;7.13;5.40;;;;;;;25.45;nan;95012.34;5033236;28;20230;-64
2022/07/30 04:06:38;;;;;;;5.57;5.15;;;;;;;25.50;nan;95017.09;5033421;28;20219;-65
2022/07/30 04:09:06;;;;;;;9.07;5.93;;;;;;;25.62;nan;95022.00;5033416;28;20578;-64
2022/07/30 04:11:33;;;;;;;5.35;4.47;;;;;;;25.72;nan;95024.59;5033117;28;20286;-67
2022/07/30 04:14:01;;;;;;;5.63;5.13;;;;;;;25.88;nan;95014.38;5033816;28;20203;-65
2022/07/30 04:16:37;;;;;;;10.65;5.22;;;;;;;25.90;nan;95025.47;5033494;28;20669;-64
2022/07/30 04:19:08;;;;;;;7.88;5.90;;;;;;;26.02;nan;95024.28;5033582;28;20257;-65
2022/07/30 04:21:37;;;;;;;5.65;5.25;;;;;;;26.12;nan;95039.03;5033564;28;20195;-65
2022/07/30 04:24:06;;;;;;;9.07;5.22;;;;;;;26.15;nan;95023.94;5033439;28;20712;-64
2022/07/30 04:26:35;;;;;;;12.40;5.47;;;;;;;26.05;nan;95024.00;5033170;28;20196;-66
2022/07/30 04:29:05;;;;;;;8.30;5.70;;;;;;;26.11;nan;95014.78;5033643;28;20246;-66
2022/07/30 04:31:34;;;;;;;5.55;5.10;;;;;;;26.23;nan;95024.00;5033255;28;20196;-65
2022/07/30 04:34:01;;;;;;;5.97;5.30;;;;;;;26.38;nan;95022.56;5033173;28;20631;-65
2022/07/30 04:36:28;;;;;;;7.35;5.45;;;;;;;26.54;nan;95028.91;5033099;28;20222;-64
2022/07/30 04:38:56;;;;;;;5.32;4.93;;;;;;;26.69;nan;95032.63;5032890;28;20199;-64
2022/07/30 04:41:23;;;;;;;8.25;5.47;;;;;;;26.82;nan;95033.06;5032433;28;20249;-65
2022/07/30 04:43:50;;;;;;;7.20;5.85;;;;;;;27.06;nan;95041.09;5032612;28;20223;-66
2022/07/30 04:46:18;;;;;;;6.68;4.85;;;;;;;27.53;nan;95025.06;5032963;28;20787;-65
2022/07/30 04:48:45;;;;;;;5.32;4.93;;;;;;;27.78;nan;95037.28;5032970;28;20274;-64
2022/07/30 04:51:16;;;;;;;6.47;5.38;;;;;;;27.74;nan;95035.13;5032873;28;20290;-65
2022/07/30 04:53:45;;;;;;;5.15;4.75;;;;;;;27.59;nan;95029.69;5032907;28;20203;-64
2022/07/30 04:56:14;;;;;;;14.88;5.20;;;;;;;27.51;nan;95028.81;5032885;28;20199;-66
2022/07/30 04:58:41;;;;;;;7.95;5.40;;;;;;;27.41;nan;95023.72;5032615;28;20246;-67
2022/07/30 05:01:09;;;;;;;6.57;5.55;;;;;;;27.42;nan;95020.13;5032617;28;20302;-63
2022/07/30 05:03:40;;;;;;;6.57;6.00;;;;;;;27.49;nan;95021.13;5032340;28;20801;-64
2022/07/30 05:06:07;;;;;;;5.45;5.15;;;;;;;27.33;nan;95021.03;5032527;28;20231;-65
2022/07/30 05:08:34;;;;;;;10.30;5.50;;;;;;;27.28;nan;95023.28;5032264;28;20200;-65
2022/07/30 05:11:02;;;;;;;6.55;5.95;;;;;;;27.49;nan;95015.91;5032267;28;20677;-64
2022/07/30 05:13:29;;;;;;;6.63;6.03;;;;;;;27.72;nan;95017.03;5032227;28;20257;-67
2022/07/30 05:15:55;;;;;;;5.70;5.28;;;;;;;28.14;nan;95021.44;5032360;28;20740;-63
2022/07/30 05:18:22;;;;;;;6.47;4.93;;;;;;;28.60;nan;95022.69;5031888;28;20673;-64
2022/07/30 05:20:50;;;;;;;5.50;5.13;;;;;;;29.62;nan;95016.06;5032248;28;20204;-64
2022/07/30 05:23:17;;;;;;;6.25;5.30;;;;;;;31.45;nan;95022.25;5030945;28;20214;-66
2022/07/30 05:25:44;;;;;;;5.75;5.10;;;;;;;33.47;nan;95004.63;5032236;28;20200;-65
2022/07/30 05:28:10;;;;;;;5.32;4.85;;;;;;;34.66;nan;95007.75;5031959;28;20258;-65
2022/07/30 05:30:37;;;;;;;11.20;5.75;;;;;;;36.26;nan;95002.94;5031851;28;20681;-65
2022/07/30 05:33:04;;;;;;;5.78;5.22;;;;;;;37.24;nan;95002.53;5031558;28;20241;-65
2022/07/30 05:35:31;;;;;;;5.95;5.30;;;;;;;38.23;nan;95004.97;5031322;28;20560;-66
2022/07/30 05:38:00;;;;;;;6.63;5.60;;;;;;;39.13;nan;95011.03;5031630;28;20334;-65
2022/07/30 05:40:27;;;;;;;6.10;5.22;;;;;;;39.43;nan;95026.91;5031634;28;20203;-66
2022/07/30 05:42:54;;;;;;;5.68;5.07;;;;;;;40.11;nan;95012.97;5031960;28;20258;-65
2022/07/30 05:45:20;;;;;;;7.65;6.43;;;;;;;39.63;nan;95007.13;5031518;28;20303;-65
2022/07/30 05:47:48;;;;;;;8.85;6.80;;;;;;;38.08;nan;95005.34;5031217;28;20204;-65
2022/07/30 05:50:17;;;;;;;6.18;5.50;;;;;;;114.25;nan;95004.16;5031442;28;20683;-64
2022/07/30 05:52:44;;;;;;;7.20;4.60;;;;;;;38.10;nan;95003.28;5030934;28;20567;-65
2022/07/30 05:55:12;;;;;;;6.80;5.45;;;;;;;39.09;nan;95007.25;5031373;28;20196;-64
2022/07/30 05:57:40;;;;;;;6.10;5.55;;;;;;;39.33;nan;95013.38;5031547;28;20204;-64
2022/07/30 06:00:09;;;;;;;7.57;6.35;;;;;;;39.43;nan;95007.47;5031293;28;20211;-66
2022/07/30 06:02:36;;;;;;;8.60;5.03;;;;;;;39.85;nan;95010.00;5031027;28;20207;-65
2022/07/30 06:05:03;;;;;;;5.88;5.32;;;;;;;38.90;nan;95012.81;5030439;28;20227;-65
2022/07/30 06:07:30;;;;;;;4.88;4.50;;;;;;;38.98;nan;95010.66;5031715;28;20261;-66
2022/07/30 06:09:58;;;;;;;9.88;5.07;;;;;;;39.99;nan;95011.41;5031093;28;20204;-65
2022/07/30 06:12:27;;;;;;;5.35;4.90;;;;;;;40.92;nan;95011.06;5030738;28;20212;-65
2022/07/30 06:14:54;;;;;;;5.00;4.57;;;;;;;41.45;nan;95015.94;5030636;28;20198;-65
2022/07/30 06:17:21;;;;;;;9.23;7.55;;;;;;;40.22;nan;95015.84;5030762;28;20203;-65
2022/07/30 06:19:47;;;;;;;11.95;7.30;;;;;;;37.20;nan;95012.75;5030480;28;20200;-65
2022/07/30 06:22:14;;;;;;;5.95;4.93;;;;;;;37.25;nan;95007.59;5030822;28;20261;-65
2022/07/30 06:24:41;;;;;;;8.77;5.43;;;;;;;38.02;nan;95005.41;5030314;28;20231;-65
2022/07/30 06:27:08;;;;;;;5.63;5.03;;;;;;;38.54;nan;95013.75;5031000;28;20199;-66
2022/07/30 06:29:36;;;;;;;6.18;5.40;;;;;;;38.99;nan;95006.97;5030572;28;20204;-65
2022/07/30 06:32:03;;;;;;;9.93;5.65;;;;;;;38.11;nan;95004.88;5030691;28;20204;-64
2022/07/30 06:34:30;;;;;;;9.13;5.20;;;;;;;37.39;nan;94995.03;5030479;28;20196;-65
2022/07/30 06:36:57;;;;;;;5.82;4.28;;;;;;;34.18;nan;95009.66;5030731;28;20739;-65
2022/07/30 06:39:24;;;;;;;10.20;5.18;;;;;;;33.20;nan;95000.97;5030637;28;20206;-65
2022/07/30 06:41:50;;;;;;;8.27;5.35;;;;;;;34.00;nan;95000.47;5030152;28;20196;-66
2022/07/30 06:44:17;;;;;;;4.63;4.25;;;;;;;35.56;nan;94999.28;5030288;28;20289;-66
2022/07/30 06:46:45;;;;;;;5.22;4.82;;;;;;;35.17;nan;94994.00;5030614;28;20206;-66
2022/07/30 06:49:12;;;;;;;5.95;4.50;;;;;;;34.58;nan;94989.50;5030701;28;20281;-65
2022/07/30 06:51:39;;;;;;;4.38;3.97;;;;;;;35.69;nan;94988.66;5029757;28;20240;-65
2022/07/30 06:54:05;;;;;;;3.97;3.60;;;;;;;35.56;nan;94983.41;5030148;28;20191;-65
2022/07/30 06:56:32;;;;;;;4.53;4.20;;;;;;;33.62;nan;94983.44;5030286;28;20673;-65
2022/07/30 06:58:59;;;;;;;5.15;4.60;;;;;;;31.89;nan;94974.19;5030310;28;20203;-65
2022/07/30 07:01:26;;;;;;;4.80;4.18;;;;;;;31.26;nan;94986.84;5030757;28;20228;-65
2022/07/30 07:03:54;;;;;;;8.27;5.00;;;;;;;31.24;nan;94974.88;5030349;28;20199;-65
2022/07/30 07:06:21;;;;;;;5.32;4.10;;;;;;;31.05;nan;94968.31;5029936;28;20717;-66
2022/07/30 07:08:47;;;;;;;20.35;17.15;;;;;;;31.28;nan;94976.16;5030060;28;20204;-70
2022/07/30 07:11:14;;;;;;;4.20;4.00;;;;;;;30.25;nan;94974.00;5030360;28;20640;-65
2022/07/30 07:13:41;;;;;;;5.82;3.90;;;;;;;29.91;nan;94981.41;5030242;28;20200;-65
2022/07/30 07:16:08;;;;;;;4.68;4.00;;;;;;;30.08;nan;94965.44;5030996;28;20700;-66
2022/07/30 07:18:34;;;;;;;4.75;4.45;;;;;;;30.15;nan;94970.00;5030836;28;20203;-67
2022/07/30 07:21:02;;;;;;;8.10;4.80;;;;;;;30.45;nan;94972.56;5030266;28;20204;-66
2022/07/30 07:23:29;;;;;;;6.93;4.60;;;;;;;29.74;nan;94973.59;5030800;28;20195;-67
2022/07/30 07:25:56;;;;;;;7.38;4.60;;;;;;;29.31;nan;94984.53;5030605;28;20219;-67
2022/07/30 07:28:23;;;;;;;8.43;5.22;;;;;;;30.08;nan;94982.97;5030488;28;20640;-67
2022/07/30 07:30:50;;;;;;;3.92;3.72;;;;;;;29.68;nan;94997.88;5030594;28;20569;-66
2022/07/30 07:33:16;;;;;;;4.45;4.15;;;;;;;29.83;nan;94997.16;5031104;28;20283;-66
2022/07/30 07:35:43;;;;;;;5.00;3.85;;;;;;;30.19;nan;94987.81;5030295;28;20265;-66
2022/07/30 07:38:12;;;;;;;4.60;4.20;;;;;;;30.17;nan;94973.28;5030895;28;20253;-66
2022/07/30 07:40:39;;;;;;;4.80;4.43;;;;;;;30.31;nan;94968.09;5030501;28;20192;-67
2022/07/30 07:43:06;;;;;;;4.93;4.53;;;;;;;30.67;nan;94985.91;5030461;28;20207;-67
2022/07/30 07:45:33;;;;;;;4.75;4.32;;;;;;;31.01;nan;94970.50;5030858;28;20644;-66
2022/07/30 07:47:59;;;;;;;4.63;4.30;;;;;;;31.15;nan;94981.22;5034197;28;20235;-68
2022/07/30 07:50:26;;;;;;;5.25;4.20;;;;;;;30.97;nan;94971.84;5034470;28;20204;-68
2022/07/30 07:52:53;;;;;;;5.82;4.47;;;;;;;31.26;nan;94972.91;5033800;28;20273;-68
2022/07/30 07:55:21;;;;;;;4.78;4.47;;;;;;;31.27;nan;94959.59;5034190;28;20265;-65
2022/07/30 07:57:48;;;;;;;8.07;4.95;;;;;;;31.42;nan;94973.56;5033826;28;20235;-67
2022/07/30 08:00:17;;;;;;;8.32;4.65;;;;;;;31.33;nan;94963.31;5034478;28;20210;-67
2022/07/30 08:02:44;;;;;;;4.50;4.20;;;;;;;31.46;nan;94961.66;5033320;28;20597;-67
2022/07/30 08:05:12;;;;;;;9.32;5.20;;;;;;;31.32;nan;94961.69;5033648;28;20232;-67
2022/07/30 08:07:39;;;;;;;4.88;4.55;;;;;;;31.38;nan;94955.72;5033850;28;20200;-68
2022/07/30 08:10:07;;;;;;;9.52;6.25;;;;;;;31.74;nan;94955.78;5033497;28;20290;-64
2022/07/30 08:12:35;;;;;;;10.85;9.30;;;;;;;32.26;nan;94950.34;5033363;28;20238;-66
2022/07/30 08:15:03;;;;;;;8.15;5.20;;;;;;;32.27;nan;94951.16;5033425;28;20250;-65
2022/07/30 08:17:30;;;;;;;7.45;6.15;;;;;;;31.81;nan;94948.00;5033454;28;20196;-66
2022/07/30 08:19:59;;;;;;;5.10;4.65;;;;;;;31.79;nan;94950.81;5033120;28;20669;-65
2022/07/30 08:22:25;;;;;;;7.45;4.82;;;;;;;31.85;nan;94946.63;5032813;28;20265;-66
2022/07/30 08:24:52;;;;;;;6.50;5.90;;;;;;;31.95;nan;94953.19;5032993;28;20286;-66
2022/07/30 08:27:19;;;;;;;6.30;5.72;;;;;;;32.14;nan;94946.56;5033504;28;20203;-66
2022/07/30 08:29:48;;;;;;;9.25;8.35;;;;;;;32.46;nan;94937.38;5033308;28;20203;-65
2022/07/30 08:32:14;;;;;;;5.45;4.85;;;;;;;32.38;nan;94943.59;5032376;28;20294;-65
2022/07/30 08:34:43;;;;;;;6.95;4.10;;;;;;;32.20;nan;94940.53;5034060;28;20250;-66
2022/07/30 08:37:10;;;;;;;4.82;4.53;;;;;;;31.97;nan;94939.88;5033567;28;20211;-65
2022/07/30 08:39:37;;;;;;;4.90;4.55;;;;;;;31.82;nan;94947.00;5033132;28;20199;-66
2022/07/30 08:42:04;;;;;;;4.97;4.68;;;;;;;31.85;nan;94941.38;5032994;28;20690;-67
2022/07/30 08:44:33;;;;;;;5.15;4.28;;;;;;;31.87;nan;94932.31;5033121;28;20203;-66
2022/07/30 08:47:02;;;;;;;6.30;5.65;;;;;;;32.06;nan;94931.69;5033384;28;20250;-64
2022/07/30 08:49:28;;;;;;;5.22;4.93;;;;;;;32.20;nan;94924.75;5032916;28;20235;-63
2022/07/30 08:51:56;;;;;;;7.78;4.60;;;;;;;31.84;nan;94926.59;5033235;28;20238;-65
2022/07/30 08:54:23;;;;;;;6.10;4.47;;;;;;;31.21;nan;94927.97;5032832;28;20253;-66
2022/07/30 08:56:50;;;;;;;5.03;4.20;;;;;;;31.42;nan;94914.97;5031791;28;20670;-66
2022/07/30 08:59:23;;;;;;;5.45;4.95;;;;;;;31.67;nan;94918.13;5032637;28;20200;-67
2022/07/30 09:01:50;;;;;;;4.72;4.30;;;;;;;31.75;nan;94916.19;5032588;28;20678;-66
2022/07/30 09:04:19;;;;;;;6.10;4.90;;;;;;;31.00;nan;94911.13;5032564;28;20723;-66
2022/07/30 09:06:45;;;;;;;4.47;4.28;;;;;;;31.04;nan;94909.75;5033079;28;20728;-65
2022/07/30 09:09:12;;;;;;;5.05;4.43;;;;;;;31.18;nan;94912.63;5032631;28;20206;-66
2022/07/30 09:11:39;;;;;;;4.68;4.38;;;;;;;31.27;nan;94901.81;5033531;28;20200;-67
2022/07/30 09:14:10;;;;;;;5.22;4.82;;;;;;;31.49;nan;94897.44;5032206;28;20195;-66
2022/07/30 09:16:37;;;;;;;8.02;4.85;;;;;;;31.58;nan;94896.38;5032331;28;20210;-65
2022/07/30 09:19:14;;;;;;;5.20;4.88;;;;;;;31.49;nan;94892.19;5032564;28;20215;-66
2022/07/30 09:21:42;;;;;;;5.25;4.85;;;;;;;31.78;nan;94894.81;5032662;28;20199;-66
2022/07/30 09:24:11;;;;;;;5.10;4.63;;;;;;;32.15;nan;94873.75;5032485;28;20207;-66
2022/07/30 09:26:54;;;;;;;4.85;4.50;;;;;;;32.61;nan;94880.25;5032526;28;20608;-67
2022/07/30 09:29:22;;;;;;;8.13;5.22;;;;;;;32.90;nan;94879.25;5032308;28;20729;-67
2022/07/30 09:31:56;;;;;;;5.10;4.70;;;;;;;31.99;nan;94877.44;5032406;28;20208;-66
2022/07/30 09:34:28;;;;;;;4.80;4.50;;;;;;;31.66;nan;94877.91;5032901;28;20211;-66
2022/07/30 09:36:57;;;;;;;6.57;5.30;;;;;;;31.79;nan;94891.19;5032699;28;20317;-66
2022/07/30 09:39:31;;;;;;;5.65;4.30;;;;;;;31.97;nan;94888.13;5032709;28;20203;-65
2022/07/30 09:41:58;;;;;;;4.93;4.60;;;;;;;32.26;nan;94876.72;5031693;28;20249;-65
2022/07/30 09:44:27;;;;;;;5.20;4.90;;;;;;;32.21;nan;94876.44;5031992;28;20658;-65
2022/07/30 09:46:53;;;;;;;5.57;5.18;;;;;;;32.15;nan;94871.94;5031940;28;20223;-65
2022/07/30 09:49:22;;;;;;;4.70;4.30;;;;;;;31.69;nan;94869.63;5031822;28;20600;-65
2022/07/30 09:51:50;;;;;;;7.32;5.07;;;;;;;31.53;nan;94866.38;5031577;28;20231;-66
2022/07/30 09:54:18;;;;;;;5.85;4.78;;;;;;;31.39;nan;94868.88;5032007;28;20204;-65
2022/07/30 09:56:45;;;;;;;4.22;4.03;;;;;;;31.27;nan;94865.06;5032261;28;20200;-65
2022/07/30 09:59:33;;;;;;;4.95;4.50;;;;;;;31.39;nan;94862.81;5032042;28;20299;-67
2022/07/30 10:02:00;;;;;;;5.40;4.95;;;;;;;31.21;nan;94857.91;5026675;28;20215;-65
2022/07/30 10:04:28;;;;;;;6.00;4.60;;;;;;;31.48;nan;94848.56;5031511;28;20290;-65
2022/07/30 10:06:56;;;;;;;5.15;4.65;;;;;;;31.42;nan;94852.75;5032049;28;20291;-66
2022/07/30 10:09:29;;;;;;;5.85;3.95;;;;;;;31.75;nan;94853.13;5031189;28;20253;-65
2022/07/30 10:11:58;;;;;;;5.28;4.97;;;;;;;32.24;nan;94841.06;5031638;28;20207;-65
2022/07/30 10:14:29;;;;;;;5.07;4.68;;;;;;;32.22;nan;94838.63;5031511;28;20290;-65
2022/07/30 10:16:56;;;;;;;5.05;4.57;;;;;;;32.15;nan;94839.56;5031683;28;20206;-66
2022/07/30 10:19:24;;;;;;;5.93;5.25;;;;;;;32.30;nan;94829.81;5031847;28;20254;-66
2022/07/30 10:21:52;;;;;;;4.65;4.30;;;;;;;31.93;nan;94833.47;5031582;28;20199;-65
2022/07/30 10:24:19;;;;;;;5.22;4.80;;;;;;;31.98;nan;94826.66;5031329;28;20207;-65
2022/07/30 10:26:47;;;;;;;5.03;4.70;;;;;;;32.49;nan;94818.63;5031451;28;20223;-64
2022/07/30 10:29:17;;;;;;;5.00;4.60;;;;;;;32.64;nan;94823.78;5031378;28;20210;-67
2022/07/30 10:31:44;;;;;;;5.15;4.80;;;;;;;32.19;nan;94817.94;5031119;28;20290;-65
2022/07/30 10:34:12;;;;;;;4.47;4.18;;;;;;;32.07;nan;94808.97;5031292;28;20571;-64
2022/07/30 10:36:41;;;;;;;5.13;4.63;;;;;;;31.92;nan;94810.84;5031207;28;20207;-65
2022/07/30 10:39:10;;;;;;;12.20;5.38;;;;;;;31.82;nan;94805.09;5031546;28;20204;-66
2022/07/30 10:41:46;;;;;;;4.95;4.65;;;;;;;31.96;nan;94806.81;5031463;28;20199;-64
2022/07/30 10:44:38;;;;;;;5.60;5.15;;;;;;;31.87;nan;94807.97;5031263;28;20257;-65
2022/07/30 10:47:07;;;;;;;9.70;8.82;;;;;;;32.38;nan;94801.56;5030793;28;20228;-65
2022/07/30 10:49:34;;;;;;;5.90;5.60;;;;;;;32.31;nan;94797.25;5030921;28;20203;-66
2022/07/30 10:52:01;;;;;;;6.07;5.68;;;;;;;32.58;nan;94796.44;5030194;28;20289;-65
2022/07/30 10:54:39;;;;;;;5.95;5.55;;;;;;;32.71;nan;94806.22;5031285;28;20207;-67
2022/07/30 10:57:09;;;;;;;6.53;6.13;;;;;;;32.61;nan;94789.97;5030429;28;20202;-63
2022/07/30 11:00:15;;;;;;;8.73;5.97;;;;;;;32.21;nan;94789.69;5030714;28;20210;-66
2022/07/30 11:03:15;;;;;;;6.15;5.82;;;;;;;32.07;nan;94786.13;5030821;28;20215;-64
2022/07/30 11:05:43;;;;;;;6.45;6.00;;;;;;;31.95;nan;94785.00;5031001;28;20227;-65
2022/07/30 11:08:29;;;;;;;11.43;6.28;;;;;;;32.06;nan;94775.78;5030845;28;20269;-66
2022/07/30 11:10:56;;;;;;;6.15;5.72;;;;;;;32.22;nan;94770.28;5030678;28;20291;-66
2022/07/30 11:13:54;;;;;;;6.25;5.93;;;;;;;32.17;nan;94764.78;5030638;28;20254;-64
2022/07/30 11:16:26;;;;;;;5.95;5.45;;;;;;;32.17;nan;94767.41;5030697;28;20196;-67
2022/07/30 11:19:04;;;;;;;8.88;6.50;;;;;;;31.72;nan;94764.16;5030254;28;20735;-67
2022/07/30 11:21:32;;;;;;;6.28;5.88;;;;;;;32.13;nan;94760.88;5032654;28;20577;-68
2022/07/30 11:23:59;;;;;;;7.25;6.78;;;;;;;32.42;nan;94755.44;5034545;28;20291;-66
2022/07/30 11:26:49;;;;;;;6.28;5.78;;;;;;;32.46;nan;94755.88;5034639;28;20227;-67
2022/07/30 11:29:39;;;;;;;6.85;6.35;;;;;;;32.81;nan;94756.72;5034507;28;20200;-66
2022/07/30 11:32:30;;;;;;;6.15;5.70;;;;;;;32.81;nan;94758.53;5034377;28;20231;-66
2022/07/30 11:35:28;;;;;;;6.50;6.10;;;;;;;32.51;nan;94750.03;5034207;28;20207;-66
2022/07/30 11:37:57;;;;;;;6.53;6.10;;;;;;;32.63;nan;94746.69;4973668;28;20394;-66
2022/07/30 11:40:25;;;;;;;7.18;6.40;;;;;;;32.64;nan;94735.16;5021720;28;20196;-69
2022/07/30 11:43:12;;;;;;;7.15;6.60;;;;;;;32.78;nan;94736.03;5034050;28;20249;-68
2022/07/30 11:45:39;;;;;;;6.90;6.50;;;;;;;32.97;nan;94737.13;5033722;28;20380;-67
2022/07/30 11:48:11;;;;;;;7.55;6.70;;;;;;;32.93;nan;94730.63;5034166;28;20223;-67
2022/07/30 11:50:39;;;;;;;7.03;6.43;;;;;;;32.79;nan;94719.25;5033782;28;20239;-67
2022/07/30 11:53:07;;;;;;;7.13;6.63;;;;;;;32.74;nan;94721.66;5033888;28;20261;-68
2022/07/30 11:55:37;;;;;;;8.15;7.47;;;;;;;32.90;nan;94710.00;5034077;28;20196;-68
2022/07/30 11:58:06;;;;;;;7.43;6.90;;;;;;;32.86;nan;94706.94;5033718;28;20204;-67
2022/07/30 12:00:37;;;;;;;6.65;6.15;;;;;;;33.02;nan;94706.56;5034060;28;20200;-67
2022/07/30 12:03:11;;;;;;;7.90;7.07;;;;;;;32.70;nan;94702.78;5033875;28;20196;-67